createdAt,value
2023-04-23T00:02:06.819Z,9.90
2023-04-23T00:08:11.234Z,9.80
2023-04-23T00:14:13.707Z,9.70
2023-04-23T00:20:16.914Z,9.70
2023-04-23T00:26:19.526Z,9.70
2023-04-23T00:32:23.050Z,9.60
2023-04-23T00:38:27.075Z,9.60
2023-04-23T00:44:29.635Z,9.50
2023-04-23T00:50:32.092Z,9.50
2023-04-23T00:56:34.743Z,9.50
2023-04-23T01:02:37.834Z,9.40
2023-04-23T01:08:43.565Z,9.40
2023-04-23T01:14:46.544Z,9.30
2023-04-23T01:20:50.168Z,9.30
2023-04-23T01:26:53.283Z,9.40
2023-04-23T01:32:56.874Z,9.40
2023-04-23T01:38:59.524Z,9.40
2023-04-23T01:45:03.443Z,9.40
2023-04-23T01:51:06.158Z,9.30
2023-04-23T01:57:09.894Z,9.30
2023-04-23T02:03:12.390Z,9.30
2023-04-23T02:09:15.064Z,9.20
2023-04-23T02:15:18.083Z,9.20
2023-04-23T02:21:20.398Z,9.10
2023-04-23T02:27:22.744Z,9.10
2023-04-23T02:33:26.249Z,9.00
2023-04-23T02:39:28.769Z,8.90
2023-04-23T02:45:31.348Z,8.80
2023-04-23T02:51:33.590Z,8.80
2023-04-23T02:57:36.284Z,8.70
2023-04-23T03:03:39.309Z,8.70
2023-04-23T03:09:42.742Z,8.70
2023-04-23T03:15:45.254Z,8.60
2023-04-23T03:21:47.617Z,8.60
2023-04-23T03:27:50.742Z,8.60
2023-04-23T03:33:53.193Z,8.70
2023-04-23T03:40:07.598Z,8.70
2023-04-23T03:46:14.294Z,8.80
2023-04-23T03:52:18.141Z,9.00
2023-04-23T03:58:20.771Z,9.10
2023-04-23T04:04:23.801Z,9.40
2023-04-23T04:10:26.613Z,9.60
2023-04-23T04:16:28.831Z,10.00
2023-04-23T04:22:31.342Z,10.30
2023-04-23T04:28:36.846Z,10.80
2023-04-23T04:34:40.329Z,11.30
2023-04-23T04:40:43.154Z,11.80
2023-04-23T04:46:45.521Z,12.20
2023-04-23T04:52:48.106Z,12.70
2023-04-23T04:58:50.777Z,13.30
2023-04-23T05:04:53.354Z,13.80
2023-04-23T05:10:55.646Z,14.40
2023-04-23T05:16:58.205Z,17.00
2023-04-23T05:23:02.915Z,22.00
2023-04-23T05:29:05.647Z,24.50
2023-04-23T05:35:08.273Z,26.00
2023-04-23T05:41:10.868Z,27.30
2023-04-23T05:47:14.256Z,28.20
2023-04-23T05:53:16.712Z,29.00
2023-04-23T05:59:19.149Z,29.80
2023-04-23T06:05:21.793Z,29.90
2023-04-23T06:11:24.821Z,30.10
2023-04-23T06:17:27.062Z,30.00
2023-04-23T06:23:29.313Z,30.70
2023-04-23T06:29:32.101Z,31.00
2023-04-23T06:35:38.142Z,30.30
2023-04-23T06:41:40.624Z,30.60
2023-04-23T06:47:58.011Z,30.70
2023-04-23T06:54:00.388Z,31.60
2023-04-23T07:00:02.781Z,32.10
2023-04-23T07:06:12.086Z,32.20
2023-04-23T07:12:16.111Z,32.40
2023-04-23T07:18:22.021Z,32.30
2023-04-23T07:24:26.835Z,32.10
2023-04-23T07:30:29.282Z,32.40
2023-04-23T07:36:32.472Z,32.40
2023-04-23T07:42:35.106Z,32.70
2023-04-23T07:48:37.782Z,32.70
2023-04-23T07:54:40.276Z,32.70
2023-04-23T08:00:42.768Z,32.80
2023-04-23T08:06:45.098Z,31.70
2023-04-23T08:12:47.741Z,32.90
2023-04-23T08:19:01.735Z,34.60
2023-04-23T08:25:07.683Z,33.60
2023-04-23T08:31:22.612Z,33.50
2023-04-23T08:37:31.212Z,32.50
2023-04-23T08:44:08.514Z,32.70
2023-04-23T08:50:13.387Z,33.40
2023-04-23T08:56:16.353Z,33.20
2023-04-23T09:02:18.988Z,33.20
2023-04-23T09:08:22.201Z,33.20
2023-04-23T09:14:28.116Z,32.90
2023-04-23T09:20:30.628Z,33.10
2023-04-23T09:26:33.108Z,32.30
2023-04-23T09:32:36.876Z,32.40
2023-04-23T09:38:41.847Z,33.10
2023-04-23T09:44:44.474Z,32.40
2023-04-23T09:50:47.181Z,33.50
2023-04-23T09:57:06.198Z,32.80
2023-04-23T10:03:10.243Z,32.50
2023-04-23T10:09:13.470Z,32.30
2023-04-23T10:15:15.948Z,31.60
2023-04-23T10:21:20.031Z,32.50
2023-04-23T10:27:33.294Z,31.00
2023-04-23T10:33:56.144Z,31.50
2023-04-23T10:40:11.973Z,31.60
2023-04-23T10:46:34.824Z,31.10
2023-04-23T10:52:39.425Z,28.70
2023-04-23T10:58:52.343Z,30.10
2023-04-23T11:04:59.141Z,29.20
2023-04-23T11:11:06.925Z,29.80
2023-04-23T11:17:16.312Z,29.70
2023-04-23T11:23:35.100Z,30.30
2023-04-23T11:29:39.971Z,29.10
2023-04-23T11:35:43.086Z,26.00
2023-04-23T11:41:47.259Z,27.60
2023-04-23T11:47:57.784Z,26.30
2023-04-23T11:54:05.047Z,25.10
2023-04-23T12:00:16.512Z,24.40
2023-04-23T12:06:20.129Z,27.70
2023-04-23T12:12:23.759Z,25.20
2023-04-23T12:18:39.851Z,22.90
2023-04-23T12:24:55.040Z,21.60
2023-04-23T12:31:02.025Z,21.40
2023-04-23T12:37:07.973Z,21.20
2023-04-23T12:43:10.174Z,21.30
2023-04-23T12:49:12.682Z,21.10
2023-04-23T12:55:15.228Z,21.10
2023-04-23T13:01:17.309Z,21.20
2023-04-23T13:07:19.850Z,21.10
2023-04-23T13:13:22.476Z,20.90
2023-04-23T13:19:25.234Z,20.60
2023-04-23T13:25:27.440Z,20.60
2023-04-23T13:31:30.386Z,20.70
2023-04-23T13:37:32.915Z,20.30
2023-04-23T13:43:35.330Z,20.40
2023-04-23T13:49:37.913Z,20.30
2023-04-23T13:55:40.616Z,19.90
2023-04-23T14:01:43.035Z,19.80
2023-04-23T14:07:45.534Z,19.40
2023-04-23T14:13:48.030Z,19.20
2023-04-23T14:19:50.268Z,19.30
2023-04-23T14:26:14.017Z,19.60
2023-04-23T14:32:16.538Z,19.60
2023-04-23T14:38:18.992Z,19.90
2023-04-23T14:44:23.779Z,19.10
2023-04-23T14:50:26.653Z,18.80
2023-04-23T14:56:29.017Z,18.80
2023-04-23T15:02:31.613Z,18.60
2023-04-23T15:08:34.485Z,18.60
2023-04-23T15:14:38.247Z,18.60
2023-04-23T15:20:41.082Z,18.60
2023-04-23T15:26:44.007Z,18.40
2023-04-23T15:32:46.338Z,18.20
2023-04-23T15:38:48.836Z,18.20
2023-04-23T15:44:55.106Z,18.30
2023-04-23T15:50:57.432Z,18.40
2023-04-23T15:56:59.599Z,18.60
2023-04-23T16:03:04.705Z,18.70
2023-04-23T16:09:10.559Z,18.60
2023-04-23T16:15:13.102Z,18.60
2023-04-23T16:21:15.203Z,18.50
2023-04-23T16:27:17.550Z,18.40
2023-04-23T16:33:19.694Z,18.30
2023-04-23T16:39:22.444Z,18.30
2023-04-23T16:45:24.798Z,18.10
2023-04-23T16:51:28.764Z,17.70
2023-04-23T16:57:31.177Z,17.50
2023-04-23T17:03:34.269Z,17.20
2023-04-23T17:09:36.714Z,16.90
2023-04-23T17:15:39.017Z,16.70
2023-04-23T17:21:41.399Z,16.60
2023-04-23T17:27:43.938Z,16.40
2023-04-23T17:33:49.724Z,16.30
2023-04-23T17:39:52.293Z,16.10
2023-04-23T17:45:54.574Z,16.00
2023-04-23T17:51:56.921Z,15.90
2023-04-23T17:58:05.885Z,15.90
2023-04-23T18:04:09.302Z,15.70
2023-04-23T18:10:15.009Z,15.60
2023-04-23T18:16:17.694Z,15.40
2023-04-23T18:22:20.456Z,15.40
2023-04-23T18:28:22.975Z,15.40
2023-04-23T18:34:25.842Z,15.30
2023-04-23T18:40:28.638Z,15.20
2023-04-23T18:46:31.679Z,15.00
2023-04-23T18:52:34.236Z,14.90
2023-04-23T18:58:36.722Z,14.80
2023-04-23T19:04:39.509Z,14.60
2023-04-23T19:10:42.118Z,14.50
2023-04-23T19:16:44.398Z,14.40
2023-04-23T19:22:47.081Z,14.30
2023-04-23T19:28:49.431Z,14.20
2023-04-23T19:34:51.870Z,14.10
2023-04-23T19:40:54.558Z,14.00
2023-04-23T19:46:57.019Z,13.90
2023-04-23T19:52:59.623Z,13.80
2023-04-23T19:59:02.195Z,13.70
2023-04-23T20:05:04.784Z,13.60
2023-04-23T20:11:07.785Z,13.50
2023-04-23T20:17:10.785Z,13.40
2023-04-23T20:23:13.297Z,13.30
2023-04-23T20:29:15.694Z,13.30
2023-04-23T20:35:18.240Z,13.20
2023-04-23T20:41:21.161Z,13.10
2023-04-23T20:47:24.554Z,13.00
2023-04-23T20:53:27.313Z,13.00
2023-04-23T20:59:30.045Z,12.90
2023-04-23T21:05:32.379Z,12.90
2023-04-23T21:11:34.854Z,12.90
2023-04-23T21:17:37.118Z,12.80
2023-04-23T21:23:39.738Z,12.80
2023-04-23T21:29:45.772Z,12.70
2023-04-23T21:35:49.074Z,12.70
2023-04-23T21:41:51.523Z,12.70
2023-04-23T21:47:54.040Z,12.70
2023-04-23T21:53:56.565Z,12.70
2023-04-23T21:59:59.121Z,12.80
2023-04-23T22:06:03.103Z,12.80
2023-04-23T22:12:05.607Z,12.80
2023-04-23T22:18:08.379Z,12.70
2023-04-23T22:24:11.121Z,12.70
2023-04-23T22:30:13.728Z,12.70
2023-04-23T22:36:17.296Z,12.60
2023-04-23T22:42:20.573Z,12.50
2023-04-23T22:48:24.898Z,12.50
2023-04-23T22:54:30.551Z,12.50
2023-04-23T23:00:32.862Z,12.60
2023-04-23T23:06:35.083Z,12.70
2023-04-23T23:12:39.640Z,12.80
2023-04-23T23:18:42.339Z,12.70
2023-04-23T23:24:44.557Z,12.70
2023-04-23T23:30:48.898Z,12.60
2023-04-23T23:36:52.235Z,12.50
2023-04-23T23:42:54.801Z,12.40
2023-04-23T23:48:57.096Z,12.40
2023-04-23T23:54:59.252Z,12.40
